createdAt,value
2023-04-19T05:14:15.093Z,1022.5
2023-04-19T06:15:56.177Z,1022.3
2023-04-19T06:32:26.779Z,1022.4
2023-04-19T06:43:32.551Z,1022.3
2023-04-19T06:49:13.820Z,1022.3
2023-04-19T06:54:59.954Z,1022.4
2023-04-19T07:00:39.455Z,1022.3
2023-04-19T07:06:13.030Z,1022.2
2023-04-19T07:11:30.426Z,1022.2
2023-04-19T07:17:04.429Z,1022.3
2023-04-19T07:22:56.567Z,1022.2
2023-04-19T07:28:07.160Z,1022.2
2023-04-19T07:33:50.730Z,1022.2
2023-04-19T07:39:21.329Z,1022.1
2023-04-19T07:56:10.997Z,1021.9
2023-04-19T09:09:00.286Z,1021.4
2023-04-19T09:14:54.289Z,1021.3
2023-04-19T09:19:59.814Z,1021.2
2023-04-19T09:26:14.974Z,1021.1
2023-04-19T09:31:24.090Z,1021
2023-04-19T09:42:47.749Z,1020.9
2023-04-19T09:48:12.345Z,1020.7
2023-04-19T09:59:17.338Z,1020.6
2023-04-19T10:05:16.105Z,1020.6
2023-04-19T10:10:41.565Z,1020.5
2023-04-19T10:16:18.717Z,1020.4
2023-04-19T10:21:33.326Z,1020.2
2023-04-19T10:44:13.268Z,1019.9
2023-04-19T11:01:12.881Z,1019.7
2023-04-19T11:06:45.042Z,1019.6
2023-04-19T11:12:05.574Z,1019.4
2023-04-19T11:18:09.322Z,1019.5
2023-04-19T11:23:19.453Z,1019.4
2023-04-19T11:29:08.453Z,1019.3
2023-04-19T11:34:38.924Z,1019.3
2023-04-19T11:40:19.726Z,1019.2
2023-04-19T11:45:54.167Z,1019.1
2023-04-19T11:51:34.923Z,1019
2023-04-19T12:02:20.675Z,1018.9
2023-04-19T12:08:05.248Z,1018.8
2023-04-19T12:13:57.707Z,1018.6
2023-04-19T12:19:22.592Z,1018.6
2023-04-19T12:24:49.351Z,1018.5
2023-04-19T12:30:28.700Z,1018.4
2023-04-19T12:36:04.916Z,1018.5
2023-04-19T12:41:43.410Z,1018.4
2023-04-19T12:52:52.096Z,1018.3
2023-04-19T12:58:45.713Z,1018
2023-04-19T13:04:31.495Z,1018.1
2023-04-19T13:09:55.455Z,1017.9
2023-04-19T13:15:37.099Z,1017.8
2023-04-19T13:21:08.718Z,1017.8
2023-04-19T13:26:48.778Z,1017.6
2023-04-19T13:32:12.105Z,1017.6
2023-04-19T13:38:06.034Z,1017.7
2023-04-19T13:43:46.750Z,1017.4
2023-04-19T13:54:52.353Z,1017.2
2023-04-19T14:00:47.098Z,1017.2
2023-04-19T14:06:05.269Z,1016.9
2023-04-19T14:11:37.866Z,1017.1
2023-04-19T14:17:18.419Z,1017
2023-04-19T14:23:01.124Z,1016.9
2023-04-19T14:28:43.418Z,1016.9
2023-04-19T14:34:16.828Z,1016.9
2023-04-19T14:39:53.225Z,1017.1
2023-04-19T14:45:25.833Z,1017
2023-04-19T14:51:07.871Z,1016.7
2023-04-19T15:08:27.109Z,1016.7
2023-04-19T15:19:19.851Z,1016.5
2023-04-19T15:24:39.741Z,1016.5
2023-04-19T15:30:18.455Z,1016.4
2023-04-19T15:36:15.020Z,1016.5
2023-04-19T16:04:04.181Z,1016.2
2023-04-19T16:15:09.884Z,1016.2
2023-04-19T16:20:56.460Z,1016.2
2023-04-19T16:26:15.736Z,1016.2
2023-04-19T16:37:49.282Z,1016.4
2023-04-19T16:43:01.398Z,1016.4
2023-04-19T16:59:59.429Z,1016.3
2023-04-19T17:05:38.289Z,1016.3
2023-04-19T17:11:13.350Z,1016.5
2023-04-19T17:22:06.958Z,1016.7
2023-04-19T17:27:52.836Z,1016.6
2023-04-19T17:33:23.386Z,1016.6
2023-04-19T17:38:59.286Z,1016.6
2023-04-19T17:44:30.390Z,1016.8
2023-04-19T17:50:18.045Z,1016.8
2023-04-19T17:55:44.930Z,1016.8
2023-04-19T18:01:13.140Z,1016.8
2023-04-19T18:12:40.444Z,1016.7
2023-04-19T18:23:40.411Z,1016.8
2023-04-19T18:29:17.281Z,1017
2023-04-19T18:34:31.126Z,1017
2023-04-19T18:40:16.855Z,1017.2
2023-04-19T18:45:59.354Z,1017.2
2023-04-19T18:51:16.695Z,1017.4
2023-04-19T19:02:30.319Z,1017.2
2023-04-19T19:08:21.061Z,1017.3
2023-04-19T19:13:50.058Z,1017.3
2023-04-19T19:19:07.404Z,1017.3
2023-04-19T19:24:40.228Z,1017.4
2023-04-19T21:05:27.568Z,1018
